createdAt,value
2018-03-01T00:00:20.946Z,0
2018-03-01T00:01:01.462Z,0
2018-03-01T00:01:41.985Z,0
2018-03-01T00:02:22.497Z,0
2018-03-01T00:03:03.006Z,0
2018-03-01T00:03:43.521Z,0
2018-03-01T00:04:24.058Z,0
2018-03-01T00:05:04.579Z,0
2018-03-01T00:05:45.090Z,0
2018-03-01T00:06:25.600Z,0
2018-03-01T00:07:06.129Z,0
2018-03-01T00:07:46.653Z,0
2018-03-01T00:08:27.163Z,0
2018-03-01T00:09:07.688Z,0
2018-03-01T00:09:48.185Z,0
2018-03-01T00:10:28.698Z,0
2018-03-01T00:11:09.235Z,0
2018-03-01T00:11:49.770Z,0
2018-03-01T00:12:30.275Z,0
2018-03-01T00:13:10.793Z,0
2018-03-01T00:13:51.316Z,0
2018-03-01T00:14:31.833Z,0
2018-03-01T00:15:12.341Z,0
2018-03-01T00:15:52.851Z,0
2018-03-01T00:16:33.362Z,0
2018-03-01T00:17:13.934Z,0
2018-03-01T00:17:54.452Z,0
2018-03-01T00:18:34.972Z,0
2018-03-01T00:19:15.486Z,0
2018-03-01T00:19:55.997Z,0
2018-03-01T00:20:36.502Z,0
2018-03-01T00:21:17.006Z,0
2018-03-01T00:21:57.515Z,0
2018-03-01T00:22:38.040Z,0
2018-03-01T00:23:18.548Z,0
2018-03-01T00:23:59.060Z,0
2018-03-01T00:24:39.562Z,0
2018-03-01T00:25:20.068Z,0
2018-03-01T00:26:00.597Z,0
2018-03-01T00:26:41.102Z,0
2018-03-01T00:27:21.607Z,0
2018-03-01T00:28:02.126Z,0
2018-03-01T00:28:42.648Z,0
2018-03-01T00:29:23.173Z,0
2018-03-01T00:30:03.678Z,0
2018-03-01T00:30:44.188Z,0
2018-03-01T00:31:24.710Z,0
2018-03-01T00:32:05.217Z,0
2018-03-01T00:32:45.730Z,0
2018-03-01T00:33:26.242Z,0
2018-03-01T00:34:06.758Z,0
2018-03-01T00:34:47.264Z,0
2018-03-01T00:35:27.792Z,0
2018-03-01T00:36:08.293Z,0
2018-03-01T00:36:48.820Z,0
2018-03-01T00:37:29.327Z,0
2018-03-01T00:38:09.835Z,0
2018-03-01T00:38:50.345Z,0
2018-03-01T00:39:30.887Z,0
2018-03-01T00:40:11.388Z,0
2018-03-01T00:40:51.909Z,0
2018-03-01T00:41:32.431Z,0
2018-03-01T00:42:12.934Z,0
2018-03-01T00:42:53.449Z,0
2018-03-01T00:43:33.956Z,0
2018-03-01T00:44:14.477Z,0
2018-03-01T00:44:54.988Z,0
2018-03-01T00:45:35.502Z,0
2018-03-01T00:46:16.037Z,0
2018-03-01T00:46:56.606Z,0
2018-03-01T00:47:37.083Z,0
2018-03-01T00:48:17.594Z,0
2018-03-01T00:48:58.104Z,0
2018-03-01T00:49:38.632Z,0
2018-03-01T00:50:19.140Z,0
2018-03-01T00:50:59.652Z,0
2018-03-01T00:51:40.169Z,0
2018-03-01T00:52:20.695Z,0
2018-03-01T00:53:01.192Z,0
2018-03-01T00:53:41.733Z,0
2018-03-01T00:54:22.242Z,0
2018-03-01T00:55:02.751Z,0
2018-03-01T00:55:43.277Z,0
2018-03-01T00:56:23.774Z,0
2018-03-01T00:57:04.290Z,0
2018-03-01T00:57:44.814Z,0
2018-03-01T00:58:25.319Z,0
2018-03-01T00:59:05.844Z,0
2018-03-01T00:59:46.403Z,0
2018-03-01T01:00:26.905Z,0
2018-03-01T01:01:07.423Z,0
2018-03-01T01:01:47.918Z,0
2018-03-01T01:02:28.445Z,0
2018-03-01T01:03:08.947Z,0
2018-03-01T01:03:49.462Z,0
2018-03-01T01:04:29.978Z,0
2018-03-01T01:05:10.493Z,0
2018-03-01T01:05:51.007Z,0
2018-03-01T01:06:31.521Z,0
2018-03-01T01:07:12.017Z,0
2018-03-01T01:07:52.539Z,0
2018-03-01T01:08:33.038Z,0
2018-03-01T01:09:13.572Z,0
2018-03-01T01:09:54.087Z,0
2018-03-01T01:10:34.607Z,0
2018-03-01T01:11:15.136Z,0
2018-03-01T01:11:55.661Z,0
2018-03-01T01:12:36.180Z,0
2018-03-01T01:13:16.692Z,0
2018-03-01T01:13:57.205Z,0
2018-03-01T01:14:37.709Z,0
2018-03-01T01:15:18.237Z,0
2018-03-01T01:15:58.827Z,0
2018-03-01T01:16:39.355Z,0
2018-03-01T01:17:19.869Z,0
2018-03-01T01:18:00.376Z,0
2018-03-01T01:18:40.897Z,0
2018-03-01T01:19:21.405Z,0
2018-03-01T01:20:01.916Z,0
2018-03-01T01:20:42.453Z,0
2018-03-01T01:21:22.961Z,0
2018-03-01T01:22:03.469Z,0
2018-03-01T01:22:43.989Z,0
2018-03-01T01:23:24.497Z,0
2018-03-01T01:24:05.000Z,0
2018-03-01T01:24:45.557Z,0
2018-03-01T01:25:25.994Z,0
2018-03-01T01:26:06.542Z,0
2018-03-01T01:26:47.047Z,0
2018-03-01T01:27:27.576Z,0
2018-03-01T01:28:08.088Z,0
2018-03-01T01:28:48.601Z,0
2018-03-01T01:29:29.113Z,0
2018-03-01T01:30:09.622Z,0
2018-03-01T01:30:50.137Z,0
2018-03-01T01:31:30.648Z,0
2018-03-01T01:32:11.163Z,0
2018-03-01T01:32:51.673Z,0
2018-03-01T01:33:32.188Z,0
2018-03-01T01:34:12.710Z,0
2018-03-01T01:34:53.225Z,0
2018-03-01T01:35:33.757Z,0
2018-03-01T01:36:14.267Z,0
2018-03-01T01:36:54.787Z,0
2018-03-01T01:37:35.301Z,0
2018-03-01T01:38:15.815Z,0
2018-03-01T01:38:56.320Z,0
2018-03-01T01:39:36.860Z,0
2018-03-01T01:40:17.379Z,0
2018-03-01T01:40:57.893Z,0
2018-03-01T01:41:38.423Z,0
2018-03-01T01:42:18.933Z,0
2018-03-01T01:42:59.446Z,0
2018-03-01T01:43:39.946Z,0
2018-03-01T01:44:20.468Z,0
2018-03-01T01:45:01.006Z,0
2018-03-01T01:45:41.514Z,0
2018-03-01T01:46:22.019Z,0
2018-03-01T01:47:02.544Z,0
2018-03-01T01:47:43.069Z,0
2018-03-01T01:48:23.601Z,0
2018-03-01T01:49:04.109Z,0
2018-03-01T01:49:44.631Z,0
2018-03-01T01:50:25.156Z,0
2018-03-01T01:51:05.664Z,0
2018-03-01T01:51:46.181Z,0
2018-03-01T01:52:26.693Z,0
2018-03-01T01:53:07.214Z,0
2018-03-01T01:53:47.733Z,0
2018-03-01T01:54:28.245Z,0
2018-03-01T01:55:08.750Z,0
2018-03-01T01:55:49.286Z,0
2018-03-01T01:56:29.798Z,0
2018-03-01T01:57:10.313Z,0
2018-03-01T01:57:50.844Z,0
2018-03-01T01:58:31.361Z,0
2018-03-01T01:59:11.878Z,0
2018-03-01T01:59:52.388Z,0
2018-03-01T02:00:32.904Z,0
2018-03-01T02:01:13.411Z,0
2018-03-01T02:01:53.939Z,0
2018-03-01T02:02:34.446Z,0
2018-03-01T02:03:14.967Z,0
2018-03-01T02:03:55.471Z,0
2018-03-01T02:04:35.975Z,0
2018-03-01T02:05:16.493Z,0
2018-03-01T02:05:56.999Z,0
2018-03-01T02:06:37.504Z,0
2018-03-01T02:07:18.008Z,0
2018-03-01T02:07:58.519Z,0
2018-03-01T02:08:39.021Z,0
2018-03-01T02:09:19.526Z,0
2018-03-01T02:10:00.039Z,0
2018-03-01T02:10:40.564Z,0
2018-03-01T02:11:21.095Z,0
2018-03-01T02:12:01.597Z,0
2018-03-01T02:12:42.136Z,0
2018-03-01T02:13:22.657Z,0
2018-03-01T02:14:03.151Z,0
2018-03-01T02:14:43.677Z,0
2018-03-01T02:15:24.197Z,0
2018-03-01T02:16:04.723Z,0
2018-03-01T02:16:45.240Z,0
2018-03-01T02:17:25.750Z,0
2018-03-01T02:18:06.265Z,0
2018-03-01T02:18:46.787Z,0
2018-03-01T02:19:27.288Z,0
2018-03-01T02:20:07.799Z,0
2018-03-01T02:20:48.310Z,0
2018-03-01T02:21:28.817Z,0
2018-03-01T02:22:09.328Z,0
2018-03-01T02:22:49.839Z,0
2018-03-01T02:23:30.396Z,0
2018-03-01T02:24:10.902Z,0
2018-03-01T02:24:51.404Z,0
2018-03-01T02:25:31.920Z,0
2018-03-01T02:28:00.428Z,0
2018-03-01T02:28:40.949Z,0
2018-03-01T02:29:21.451Z,0
2018-03-01T02:30:01.972Z,0
2018-03-01T02:30:42.469Z,0
2018-03-01T02:31:22.979Z,0
2018-03-01T02:32:03.489Z,0
2018-03-01T02:32:43.989Z,0
2018-03-01T02:33:24.495Z,0
2018-03-01T02:34:05.003Z,0
2018-03-01T02:34:45.514Z,0
2018-03-01T02:35:26.016Z,0
2018-03-01T02:36:06.529Z,0
2018-03-01T02:36:47.036Z,0
2018-03-01T02:37:27.538Z,0
2018-03-01T02:38:08.055Z,0
2018-03-01T02:38:48.568Z,0
2018-03-01T02:39:29.107Z,0
2018-03-01T02:40:09.632Z,0
2018-03-01T02:40:50.151Z,0
2018-03-01T02:41:30.675Z,0
2018-03-01T02:42:11.247Z,0
2018-03-01T02:42:51.823Z,0
2018-03-01T02:43:32.277Z,0
2018-03-01T02:44:12.821Z,0
2018-03-01T02:44:53.336Z,0
2018-03-01T02:45:33.854Z,0
2018-03-01T02:48:12.579Z,0
2018-03-01T02:48:53.074Z,0
2018-03-01T02:49:33.585Z,0
2018-03-01T02:50:14.079Z,0
2018-03-01T02:50:54.585Z,0
2018-03-01T02:51:35.092Z,0
2018-03-01T02:52:15.596Z,0
2018-03-01T02:52:56.103Z,0
2018-03-01T02:53:36.606Z,0
2018-03-01T02:54:17.211Z,0
2018-03-01T02:54:57.660Z,0
2018-03-01T02:55:38.187Z,0
2018-03-01T02:56:18.681Z,0
2018-03-01T02:56:59.188Z,0
2018-03-01T02:57:39.693Z,0
2018-03-01T02:58:20.225Z,0
2018-03-01T02:59:00.766Z,0
2018-03-01T02:59:41.263Z,0
2018-03-01T03:00:21.823Z,0
2018-03-01T03:01:02.303Z,0
2018-03-01T03:01:42.808Z,0
2018-03-01T03:02:23.308Z,0
2018-03-01T03:03:03.813Z,0
2018-03-01T03:03:44.331Z,0
2018-03-01T03:04:24.831Z,0
2018-03-01T03:05:05.356Z,0
2018-03-01T03:05:45.864Z,0
2018-03-01T03:06:26.375Z,0
2018-03-01T03:07:06.874Z,0
2018-03-01T03:07:47.373Z,0
2018-03-01T03:08:27.891Z,0
2018-03-01T03:09:08.410Z,0
2018-03-01T03:09:48.933Z,0
2018-03-01T03:10:29.443Z,0
2018-03-01T03:11:09.943Z,0
2018-03-01T03:11:50.462Z,0
2018-03-01T03:12:30.974Z,0
2018-03-01T03:13:11.484Z,0
2018-03-01T03:13:51.983Z,0
2018-03-01T03:14:32.531Z,0
2018-03-01T03:15:13.048Z,0
2018-03-01T03:15:53.575Z,0
2018-03-01T03:16:34.076Z,0
2018-03-01T03:17:14.580Z,0
2018-03-01T03:17:55.085Z,0
2018-03-01T03:18:35.593Z,0
2018-03-01T03:19:16.116Z,0
2018-03-01T03:19:56.619Z,0
2018-03-01T03:20:37.155Z,0
2018-03-01T03:21:17.670Z,0
2018-03-01T03:21:58.207Z,0
2018-03-01T03:22:38.725Z,0
2018-03-01T03:23:19.262Z,0
2018-03-01T03:23:59.794Z,0
2018-03-01T03:24:40.305Z,0
2018-03-01T03:25:20.824Z,0
2018-03-01T03:26:01.332Z,0
2018-03-01T03:26:41.845Z,0
2018-03-01T03:27:22.355Z,0
2018-03-01T03:28:02.872Z,0
2018-03-01T03:28:43.362Z,0
2018-03-01T03:29:23.875Z,0
2018-03-01T03:30:04.388Z,0
2018-03-01T03:30:44.894Z,0
2018-03-01T03:31:25.395Z,0
2018-03-01T03:32:05.912Z,0
2018-03-01T03:34:24.325Z,0
2018-03-01T03:35:04.841Z,0
2018-03-01T03:35:45.360Z,0
2018-03-01T03:36:25.878Z,0
2018-03-01T03:37:06.376Z,0
2018-03-01T03:37:46.889Z,0
2018-03-01T03:38:27.414Z,0
2018-03-01T03:39:07.922Z,0
2018-03-01T03:39:48.430Z,0
2018-03-01T03:40:28.942Z,0
2018-03-01T03:41:09.452Z,0
2018-03-01T03:41:49.956Z,0
2018-03-01T03:42:30.462Z,0
2018-03-01T03:43:10.975Z,0
2018-03-01T03:43:51.480Z,0
2018-03-01T03:44:32.006Z,0
2018-03-01T03:45:12.530Z,0
2018-03-01T03:45:53.023Z,0
2018-03-01T03:46:33.555Z,0
2018-03-01T03:47:14.041Z,0
2018-03-01T03:47:54.549Z,0
2018-03-01T03:48:35.052Z,0
2018-03-01T03:49:15.562Z,0
2018-03-01T03:49:56.071Z,0
2018-03-01T03:50:36.575Z,0
2018-03-01T03:51:17.092Z,0
2018-03-01T03:51:57.582Z,0
2018-03-01T03:52:38.110Z,0
2018-03-01T03:53:18.628Z,0
2018-03-01T03:53:59.136Z,0
2018-03-01T03:54:39.653Z,0
2018-03-01T03:55:20.147Z,0
2018-03-01T03:56:00.658Z,0
2018-03-01T03:56:41.156Z,0
2018-03-01T03:57:21.657Z,0
2018-03-01T03:58:02.168Z,0
2018-03-01T03:58:42.698Z,0
2018-03-01T03:59:23.185Z,0
2018-03-01T04:00:03.684Z,0
2018-03-01T04:00:44.181Z,0
2018-03-01T04:01:24.709Z,0
2018-03-01T04:02:05.264Z,0
2018-03-01T04:02:45.808Z,0
2018-03-01T04:03:26.329Z,0
2018-03-01T04:04:06.838Z,0
2018-03-01T04:04:47.386Z,0
2018-03-01T04:05:27.890Z,0
2018-03-01T04:06:08.395Z,0
2018-03-01T04:06:48.904Z,0
2018-03-01T04:07:29.427Z,0
2018-03-01T04:08:09.927Z,0
2018-03-01T04:08:50.435Z,0
2018-03-01T04:09:30.946Z,0
2018-03-01T04:10:11.451Z,0
2018-03-01T04:10:51.970Z,0
2018-03-01T04:11:32.471Z,0
2018-03-01T04:12:12.978Z,0
2018-03-01T04:12:53.498Z,0
2018-03-01T04:13:34.002Z,0
2018-03-01T04:14:14.531Z,0
2018-03-01T04:14:55.046Z,0
2018-03-01T04:15:35.568Z,0
2018-03-01T04:16:16.081Z,0
2018-03-01T04:16:56.587Z,0
2018-03-01T04:17:37.086Z,0
2018-03-01T04:18:17.609Z,0
2018-03-01T04:18:58.115Z,0
2018-03-01T04:19:38.623Z,0
2018-03-01T04:20:19.125Z,0
2018-03-01T04:20:59.645Z,0
2018-03-01T04:21:40.153Z,0
2018-03-01T04:22:20.668Z,0
2018-03-01T04:23:01.181Z,0
2018-03-01T04:23:41.691Z,0
2018-03-01T04:24:22.208Z,0
2018-03-01T04:25:02.718Z,0
2018-03-01T04:25:43.241Z,0
2018-03-01T04:26:23.747Z,0
2018-03-01T04:27:04.262Z,0
2018-03-01T04:27:44.774Z,0
2018-03-01T04:28:25.284Z,0
2018-03-01T04:29:05.816Z,0
2018-03-01T04:29:46.330Z,0
2018-03-01T04:30:26.839Z,0
2018-03-01T04:31:07.339Z,0
2018-03-01T04:31:47.850Z,0
2018-03-01T04:32:28.376Z,0
2018-03-01T04:33:08.878Z,0
2018-03-01T04:33:49.384Z,0
2018-03-01T04:34:29.887Z,0
2018-03-01T04:35:10.387Z,0
2018-03-01T04:35:50.897Z,0
2018-03-01T04:36:31.412Z,0
2018-03-01T04:37:11.939Z,0
2018-03-01T04:37:52.467Z,0
2018-03-01T04:38:32.966Z,0
2018-03-01T04:39:13.492Z,0
2018-03-01T04:39:54.007Z,0
2018-03-01T04:40:34.516Z,0
2018-03-01T04:41:15.022Z,0
2018-03-01T04:41:55.538Z,0
2018-03-01T04:42:36.042Z,0
2018-03-01T04:43:16.556Z,0
2018-03-01T04:43:57.076Z,0
2018-03-01T04:44:37.593Z,0
2018-03-01T04:45:18.114Z,0
2018-03-01T04:45:58.657Z,0
2018-03-01T04:46:39.176Z,0
2018-03-01T04:47:19.689Z,0
2018-03-01T04:48:00.212Z,0
2018-03-01T04:48:40.730Z,0
2018-03-01T04:49:21.227Z,0
2018-03-01T04:50:01.731Z,0
2018-03-01T04:50:42.261Z,0
2018-03-01T04:51:22.778Z,0
2018-03-01T04:52:03.286Z,0
2018-03-01T04:52:43.815Z,0
2018-03-01T04:53:24.314Z,0
2018-03-01T04:54:04.823Z,0
2018-03-01T04:54:45.338Z,0
2018-03-01T04:55:25.835Z,0
2018-03-01T04:56:06.343Z,0
2018-03-01T04:56:46.882Z,0
2018-03-01T04:57:27.412Z,0
2018-03-01T04:58:07.916Z,0
2018-03-01T04:58:48.436Z,0
2018-03-01T04:59:28.955Z,0
2018-03-01T05:00:09.467Z,0
2018-03-01T05:00:49.978Z,0
2018-03-01T05:01:30.481Z,0
2018-03-01T05:02:10.988Z,0
2018-03-01T05:02:51.503Z,0
2018-03-01T05:03:32.019Z,0
2018-03-01T05:04:12.546Z,0
2018-03-01T05:04:53.085Z,0
2018-03-01T05:05:33.618Z,0
2018-03-01T05:06:14.105Z,0
2018-03-01T05:06:54.616Z,0
2018-03-01T05:07:35.142Z,0
2018-03-01T05:08:15.650Z,0
2018-03-01T05:08:56.161Z,0
2018-03-01T05:09:36.681Z,0
2018-03-01T05:10:17.189Z,0
2018-03-01T05:10:57.742Z,0
2018-03-01T05:11:38.268Z,0
2018-03-01T05:12:18.784Z,0
2018-03-01T05:12:59.271Z,0
2018-03-01T05:13:39.787Z,0
2018-03-01T05:14:20.294Z,0
2018-03-01T05:15:00.796Z,0
2018-03-01T05:15:41.292Z,0
2018-03-01T05:16:21.801Z,0
2018-03-01T05:17:02.307Z,0
2018-03-01T05:17:42.811Z,0
2018-03-01T05:18:23.326Z,0
2018-03-01T05:19:03.824Z,0
2018-03-01T05:19:44.388Z,0
2018-03-01T05:20:24.901Z,0
2018-03-01T05:21:05.405Z,0
2018-03-01T05:21:45.929Z,0
2018-03-01T05:22:26.442Z,0
2018-03-01T05:23:06.951Z,0
2018-03-01T05:23:47.469Z,0
2018-03-01T05:24:27.973Z,0
2018-03-01T05:25:08.506Z,0
2018-03-01T05:25:49.022Z,0
2018-03-01T05:26:29.535Z,0
2018-03-01T05:27:10.047Z,0
2018-03-01T05:27:50.564Z,0
2018-03-01T05:28:31.068Z,0
2018-03-01T05:29:11.588Z,0
2018-03-01T05:29:52.109Z,0
2018-03-01T05:30:32.643Z,0
2018-03-01T05:31:13.190Z,0
2018-03-01T05:31:53.697Z,0
2018-03-01T05:32:34.225Z,0
2018-03-01T05:33:14.734Z,0
2018-03-01T05:33:55.245Z,0
2018-03-01T05:34:35.758Z,0
2018-03-01T05:35:16.264Z,0
2018-03-01T05:35:56.768Z,0
2018-03-01T05:36:37.276Z,0
2018-03-01T05:37:17.783Z,0
2018-03-01T05:37:58.305Z,0
2018-03-01T05:38:38.814Z,0
2018-03-01T05:39:19.368Z,0
2018-03-01T05:39:59.875Z,0
2018-03-01T05:40:40.381Z,0
2018-03-01T05:41:20.891Z,0
2018-03-01T05:42:01.399Z,0
2018-03-01T05:42:41.912Z,0
2018-03-01T05:43:22.420Z,0
2018-03-01T05:44:02.940Z,0
2018-03-01T05:44:43.451Z,0
2018-03-01T05:45:23.970Z,0
2018-03-01T05:46:04.456Z,0
2018-03-01T05:46:44.961Z,0
2018-03-01T05:47:25.470Z,0
2018-03-01T05:48:05.997Z,0
2018-03-01T05:48:46.516Z,0
2018-03-01T05:49:27.013Z,0
2018-03-01T05:50:07.524Z,0
2018-03-01T05:50:48.036Z,0
2018-03-01T05:51:28.542Z,0
2018-03-01T05:52:09.063Z,0
2018-03-01T05:52:49.652Z,0
2018-03-01T05:53:30.175Z,0
2018-03-01T05:54:10.681Z,0
2018-03-01T05:54:51.207Z,0
2018-03-01T05:55:31.752Z,0
2018-03-01T05:56:12.254Z,0
2018-03-01T05:56:52.775Z,0
2018-03-01T05:57:33.278Z,0
2018-03-01T05:58:13.793Z,0
2018-03-01T05:58:54.315Z,0
2018-03-01T05:59:34.812Z,0
2018-03-01T06:00:15.355Z,0
2018-03-01T06:00:55.914Z,0
2018-03-01T06:01:36.407Z,0
2018-03-01T06:02:16.937Z,0
2018-03-01T06:02:57.443Z,0
2018-03-01T06:03:37.971Z,0
2018-03-01T06:04:18.504Z,0
2018-03-01T06:04:59.020Z,0
2018-03-01T06:05:39.552Z,0
2018-03-01T06:06:20.061Z,0
2018-03-01T06:07:00.559Z,0
2018-03-01T06:07:41.068Z,0
2018-03-01T06:08:21.598Z,0
2018-03-01T06:09:02.083Z,0
2018-03-01T06:09:42.579Z,0
2018-03-01T06:10:23.076Z,0
2018-03-01T06:11:03.596Z,0
2018-03-01T06:11:44.193Z,0
2018-03-01T06:12:24.648Z,0
2018-03-01T06:13:05.158Z,0
2018-03-01T06:13:45.688Z,0
2018-03-01T06:14:26.193Z,0
2018-03-01T06:15:06.697Z,0
2018-03-01T06:15:47.209Z,0
2018-03-01T06:16:27.689Z,0
2018-03-01T06:17:08.196Z,0
2018-03-01T06:17:48.701Z,0
2018-03-01T06:18:29.219Z,0
2018-03-01T06:19:09.728Z,0
2018-03-01T06:19:50.240Z,0
2018-03-01T06:20:30.763Z,0
2018-03-01T06:21:11.275Z,0
2018-03-01T06:21:51.785Z,5
2018-03-01T06:22:32.307Z,5
2018-03-01T06:23:12.800Z,5
2018-03-01T06:23:53.342Z,5
2018-03-01T06:24:33.847Z,5
2018-03-01T06:25:14.348Z,5
2018-03-01T06:25:54.858Z,5
2018-03-01T06:26:35.365Z,5
2018-03-01T06:27:15.863Z,5
2018-03-01T06:27:56.442Z,5
2018-03-01T06:28:36.892Z,5
2018-03-01T06:29:17.428Z,5
2018-03-01T06:29:58.018Z,5
2018-03-01T06:30:38.543Z,5
2018-03-01T06:31:19.061Z,10
2018-03-01T06:31:59.568Z,10
2018-03-01T06:32:40.088Z,10
2018-03-01T06:33:20.593Z,10
2018-03-01T06:34:01.112Z,10
2018-03-01T06:34:41.640Z,10
2018-03-01T06:35:22.154Z,10
2018-03-01T06:36:02.672Z,10
2018-03-01T06:36:43.154Z,10
2018-03-01T06:37:23.700Z,10
2018-03-01T06:38:04.255Z,10
2018-03-01T06:38:44.754Z,15
2018-03-01T06:39:25.334Z,15
2018-03-01T06:40:05.870Z,15
2018-03-01T06:40:46.388Z,15
2018-03-01T06:41:27.589Z,15
2018-03-01T06:42:09.028Z,15
2018-03-01T06:42:49.615Z,15
2018-03-01T06:43:31.251Z,20
2018-03-01T06:44:12.594Z,20
2018-03-01T06:44:53.119Z,20
2018-03-01T06:45:33.634Z,20
2018-03-01T06:46:14.138Z,20
2018-03-01T06:46:54.642Z,20
2018-03-01T06:47:35.165Z,25
2018-03-01T06:48:15.694Z,25
2018-03-01T06:48:56.222Z,25
2018-03-01T06:49:36.733Z,25
2018-03-01T06:50:17.244Z,25
2018-03-01T06:50:57.762Z,25
2018-03-01T06:51:38.288Z,25
2018-03-01T06:52:18.805Z,30
2018-03-01T06:52:59.306Z,30
2018-03-01T06:53:39.961Z,30
2018-03-01T06:54:20.834Z,30
2018-03-01T06:55:01.356Z,30
2018-03-01T06:55:41.877Z,35
2018-03-01T06:56:22.384Z,35
2018-03-01T06:57:03.010Z,35
2018-03-01T06:57:43.516Z,35
2018-03-01T06:58:24.040Z,35
2018-03-01T06:59:04.571Z,35
2018-03-01T06:59:45.123Z,40
2018-03-01T07:00:25.639Z,40
2018-03-01T07:01:07.133Z,40
2018-03-01T07:01:47.719Z,40
2018-03-01T07:02:28.226Z,40
2018-03-01T07:03:08.849Z,40
2018-03-01T07:03:49.343Z,40
2018-03-01T07:04:29.876Z,40
2018-03-01T07:05:10.385Z,40
2018-03-01T07:05:50.912Z,45
2018-03-01T07:06:31.432Z,45
2018-03-01T07:07:11.936Z,45
2018-03-01T07:07:52.497Z,45
2018-03-01T07:08:33.004Z,45
2018-03-01T07:09:13.519Z,50
2018-03-01T07:09:54.076Z,50
2018-03-01T07:10:34.627Z,50
2018-03-01T07:11:15.934Z,50
2018-03-01T07:11:56.426Z,55
2018-03-01T07:12:36.940Z,55
2018-03-01T07:13:17.468Z,55
2018-03-01T07:13:57.990Z,55
2018-03-01T07:14:38.501Z,55
2018-03-01T07:15:19.000Z,55
2018-03-01T07:15:59.543Z,55
2018-03-01T07:16:40.058Z,55
2018-03-01T07:17:20.579Z,55
2018-03-01T07:18:01.104Z,55
2018-03-01T07:18:41.613Z,55
2018-03-01T07:19:22.158Z,60
2018-03-01T07:20:02.668Z,60
2018-03-01T07:20:43.183Z,60
2018-03-01T07:21:23.695Z,60
2018-03-01T07:22:04.215Z,65
2018-03-01T07:22:44.742Z,65
2018-03-01T07:23:25.246Z,65
2018-03-01T07:24:05.758Z,70
2018-03-01T07:24:46.272Z,70
2018-03-01T07:25:26.857Z,70
2018-03-01T07:26:07.365Z,70
2018-03-01T07:26:47.955Z,75
2018-03-01T07:27:28.469Z,75
2018-03-01T07:28:09.049Z,75
2018-03-01T07:28:49.626Z,75
2018-03-01T07:29:30.155Z,75
2018-03-01T07:30:10.653Z,80
2018-03-01T07:30:51.316Z,80
2018-03-01T07:31:31.849Z,85
2018-03-01T07:32:12.349Z,85
2018-03-01T07:32:52.884Z,90
2018-03-01T07:33:33.367Z,90
2018-03-01T07:34:13.877Z,90
2018-03-01T07:34:54.416Z,90
2018-03-01T07:35:34.916Z,90
2018-03-01T07:36:16.131Z,90
2018-03-01T07:36:56.629Z,90
2018-03-01T07:37:37.224Z,90
2018-03-01T07:38:17.775Z,90
2018-03-01T07:38:58.276Z,95
2018-03-01T07:39:38.783Z,95
2018-03-01T07:40:19.289Z,95
2018-03-01T07:40:59.816Z,95
2018-03-01T07:41:40.329Z,95
2018-03-01T07:42:20.876Z,95
2018-03-01T07:43:01.395Z,95
2018-03-01T07:43:41.920Z,95
2018-03-01T07:44:22.438Z,95
2018-03-01T07:45:02.929Z,95
2018-03-01T07:45:43.417Z,95
2018-03-01T07:46:23.979Z,95
2018-03-01T07:47:04.495Z,95
2018-03-01T07:47:45.737Z,95
2018-03-01T07:48:26.236Z,95
2018-03-01T07:49:06.753Z,95
2018-03-01T07:49:47.245Z,95
2018-03-01T07:50:27.750Z,95
2018-03-01T07:51:08.252Z,95
2018-03-01T07:51:48.881Z,95
2018-03-01T07:52:29.414Z,95
2018-03-01T07:53:09.926Z,95
2018-03-01T07:53:50.490Z,95
2018-03-01T07:54:31.232Z,95
2018-03-01T07:55:11.744Z,95
2018-03-01T07:55:52.986Z,100
2018-03-01T07:56:33.464Z,100
2018-03-01T07:57:14.647Z,100
2018-03-01T07:57:54.560Z,100
2018-03-01T07:58:35.025Z,100
2018-03-01T07:59:15.519Z,100
2018-03-01T07:59:56.019Z,100
2018-03-01T08:00:36.544Z,100
2018-03-01T08:01:17.032Z,105
2018-03-01T08:01:57.566Z,105
2018-03-01T08:02:38.083Z,105
2018-03-01T08:03:18.599Z,105
2018-03-01T08:03:59.116Z,105
2018-03-01T08:04:39.620Z,105
2018-03-01T08:05:20.150Z,105
2018-03-01T08:06:00.684Z,105
2018-03-01T08:06:41.210Z,105
2018-03-01T08:07:21.727Z,105
2018-03-01T08:08:02.250Z,105
2018-03-01T08:08:42.769Z,105
2018-03-01T08:09:23.284Z,105
2018-03-01T08:10:03.779Z,105
2018-03-01T08:10:44.315Z,110
2018-03-01T08:11:24.849Z,110
2018-03-01T08:12:05.341Z,110
2018-03-01T08:12:45.854Z,110
2018-03-01T08:13:26.371Z,115
2018-03-01T08:14:06.889Z,115
2018-03-01T08:14:47.395Z,115
2018-03-01T08:15:27.920Z,115
2018-03-01T08:16:08.447Z,115
2018-03-01T08:16:49.023Z,115
2018-03-01T08:17:29.483Z,120
2018-03-01T08:18:10.014Z,120
2018-03-01T08:18:50.525Z,120
2018-03-01T08:19:31.036Z,120
2018-03-01T08:20:11.541Z,120
2018-03-01T08:20:52.044Z,120
2018-03-01T08:21:32.536Z,120
2018-03-01T08:23:50.857Z,120
2018-03-01T08:24:31.392Z,120
2018-03-01T08:25:11.951Z,120
2018-03-01T08:25:52.715Z,120
2018-03-01T08:26:33.226Z,120
2018-03-01T08:27:13.729Z,120
2018-03-01T08:27:54.234Z,120
2018-03-01T08:28:34.755Z,120
2018-03-01T08:29:15.284Z,120
2018-03-01T08:29:55.772Z,120
2018-03-01T08:30:36.283Z,120
2018-03-01T08:31:16.844Z,120
2018-03-01T08:31:57.377Z,120
2018-03-01T08:32:37.891Z,120
2018-03-01T08:33:18.381Z,120
2018-03-01T08:33:58.892Z,115
2018-03-01T08:34:39.402Z,115
2018-03-01T08:35:19.902Z,115
2018-03-01T08:36:00.420Z,115
2018-03-01T08:36:40.937Z,110
2018-03-01T08:37:21.467Z,110
2018-03-01T08:38:01.957Z,115
2018-03-01T08:38:42.502Z,115
2018-03-01T08:39:23.013Z,115
2018-03-01T08:40:03.531Z,115
2018-03-01T08:40:44.028Z,115
2018-03-01T08:41:24.544Z,115
2018-03-01T08:42:05.052Z,115
2018-03-01T08:42:45.595Z,115
2018-03-01T08:43:26.100Z,115
2018-03-01T08:45:59.728Z,115
2018-03-01T08:46:40.225Z,115
2018-03-01T08:47:20.744Z,115
2018-03-01T08:48:01.245Z,115
2018-03-01T08:48:41.765Z,115
2018-03-01T08:49:22.248Z,115
2018-03-01T08:50:02.780Z,115
2018-03-01T08:50:43.290Z,115
2018-03-01T08:51:23.842Z,115
2018-03-01T08:52:04.352Z,115
2018-03-01T08:52:44.873Z,120
2018-03-01T08:53:25.406Z,120
2018-03-01T08:54:06.066Z,120
2018-03-01T08:54:46.583Z,120
2018-03-01T08:55:27.091Z,120
2018-03-01T08:56:07.605Z,125
2018-03-01T08:56:48.130Z,125
2018-03-01T08:57:28.630Z,125
2018-03-01T08:58:09.157Z,125
2018-03-01T08:58:49.672Z,130
2018-03-01T08:59:30.176Z,125
2018-03-01T09:00:10.684Z,125
2018-03-01T09:00:51.207Z,125
2018-03-01T09:01:31.735Z,125
2018-03-01T09:02:12.260Z,130
2018-03-01T09:02:52.762Z,130
2018-03-01T09:03:33.301Z,130
2018-03-01T09:04:13.805Z,130
2018-03-01T09:04:54.311Z,130
2018-03-01T09:05:34.833Z,130
2018-03-01T09:06:15.392Z,130
2018-03-01T09:06:55.907Z,130
2018-03-01T09:07:36.545Z,130
2018-03-01T09:08:17.084Z,130
2018-03-01T09:08:57.952Z,130
2018-03-01T09:11:26.847Z,135
2018-03-01T09:12:07.781Z,130
2018-03-01T09:12:48.302Z,135
2018-03-01T09:13:28.832Z,135
2018-03-01T09:14:09.334Z,135
2018-03-01T09:14:49.859Z,135
2018-03-01T09:15:30.446Z,140
2018-03-01T09:16:10.965Z,140
2018-03-01T09:16:51.467Z,140
2018-03-01T09:17:31.982Z,140
2018-03-01T09:18:12.504Z,140
2018-03-01T09:18:53.009Z,140
2018-03-01T09:19:33.814Z,140
2018-03-01T09:20:14.315Z,140
2018-03-01T09:20:54.818Z,145
2018-03-01T09:23:33.735Z,145
2018-03-01T09:24:14.236Z,145
2018-03-01T09:24:54.752Z,145
2018-03-01T09:25:35.273Z,145
2018-03-01T09:26:15.777Z,145
2018-03-01T09:26:56.292Z,145
2018-03-01T09:27:36.802Z,145
2018-03-01T09:28:17.328Z,145
2018-03-01T09:28:57.826Z,145
2018-03-01T09:29:38.324Z,150
2018-03-01T09:30:18.839Z,145
2018-03-01T09:30:59.348Z,145
2018-03-01T09:31:39.853Z,150
2018-03-01T09:32:20.360Z,150
2018-03-01T09:33:00.851Z,150
2018-03-01T09:33:41.359Z,150
2018-03-01T09:34:21.859Z,150
2018-03-01T09:35:02.387Z,150
2018-03-01T09:35:42.889Z,150
2018-03-01T09:36:23.394Z,150
2018-03-01T09:37:03.891Z,155
2018-03-01T09:37:44.402Z,155
2018-03-01T09:38:24.927Z,155
2018-03-01T09:39:05.438Z,155
2018-03-01T09:39:45.954Z,155
2018-03-01T09:40:26.512Z,155
2018-03-01T09:41:07.038Z,155
2018-03-01T09:41:47.539Z,155
2018-03-01T09:42:28.048Z,160
2018-03-01T09:43:08.583Z,170
2018-03-01T09:43:49.114Z,160
2018-03-01T09:44:29.616Z,170
2018-03-01T09:45:10.116Z,160
2018-03-01T09:45:50.628Z,160
2018-03-01T09:46:31.142Z,160
2018-03-01T09:47:11.643Z,165
2018-03-01T09:47:52.159Z,165
2018-03-01T09:48:32.673Z,175
2018-03-01T09:49:13.276Z,165
2018-03-01T09:49:53.798Z,165
2018-03-01T09:50:34.315Z,165
2018-03-01T09:51:14.826Z,170
2018-03-01T09:51:55.341Z,165
2018-03-01T09:52:35.847Z,170
2018-03-01T09:53:16.363Z,170
2018-03-01T09:53:56.857Z,170
2018-03-01T09:54:37.389Z,170
2018-03-01T09:55:17.900Z,180
2018-03-01T09:55:58.422Z,175
2018-03-01T09:56:38.916Z,170
2018-03-01T09:57:19.425Z,170
2018-03-01T09:57:59.988Z,170
2018-03-01T09:58:40.462Z,170
2018-03-01T09:59:20.952Z,170
2018-03-01T10:00:01.464Z,170